sensor_id;sensor_type;location;lat;lon;timestamp;pressure;altitude;pressure_sealevel;temperature;humidity
62789;BME280;66401;42.016;21.454;2023-10-09T00:00:21;98872.44;;;19.45;50.46
62789;BME280;66401;42.016;21.454;2023-10-09T00:03:05;98873.69;;;19.54;50.00
62789;BME280;66401;42.016;21.454;2023-10-09T00:05:33;98873.22;;;19.57;49.60
62789;BME280;66401;42.016;21.454;2023-10-09T00:08:16;98875.63;;;19.59;50.11
62789;BME280;66401;42.016;21.454;2023-10-09T00:11:08;98876.56;;;19.53;50.39
62789;BME280;66401;42.016;21.454;2023-10-09T00:13:45;98881.16;;;19.45;50.41
62789;BME280;66401;42.016;21.454;2023-10-09T00:16:24;98881.50;;;19.49;51.17
62789;BME280;66401;42.016;21.454;2023-10-09T00:19:02;98876.69;;;19.46;50.70
62789;BME280;66401;42.016;21.454;2023-10-09T00:21:49;98873.00;;;19.47;51.14
62789;BME280;66401;42.016;21.454;2023-10-09T00:24:15;98872.19;;;19.47;50.79
62789;BME280;66401;42.016;21.454;2023-10-09T00:26:54;98877.97;;;19.43;51.72
62789;BME280;66401;42.016;21.454;2023-10-09T00:29:41;98880.38;;;19.45;51.36
62789;BME280;66401;42.016;21.454;2023-10-09T00:32:13;98877.28;;;19.36;51.47
62789;BME280;66401;42.016;21.454;2023-10-09T00:34:41;98875.34;;;19.32;51.89
62789;BME280;66401;42.016;21.454;2023-10-09T00:37:08;98868.47;;;19.31;51.58
62789;BME280;66401;42.016;21.454;2023-10-09T00:39:56;98856.19;;;19.25;51.18
62789;BME280;66401;42.016;21.454;2023-10-09T00:42:25;98879.03;;;19.31;51.35
62789;BME280;66401;42.016;21.454;2023-10-09T00:44:55;98863.06;;;19.26;51.19
62789;BME280;66401;42.016;21.454;2023-10-09T00:47:21;98875.13;;;19.33;50.98
62789;BME280;66401;42.016;21.454;2023-10-09T00:52:13;98881.75;;;19.36;50.62
62789;BME280;66401;42.016;21.454;2023-10-09T00:54:49;98854.47;;;19.19;51.41
62789;BME280;66401;42.016;21.454;2023-10-09T00:57:18;98880.28;;;19.28;51.55
62789;BME280;66401;42.016;21.454;2023-10-09T00:59:52;98885.22;;;19.25;52.25
62789;BME280;66401;42.016;21.454;2023-10-09T01:02:28;98880.88;;;19.19;52.26
62789;BME280;66401;42.016;21.454;2023-10-09T01:05:03;98876.63;;;19.17;52.38
62789;BME280;66401;42.016;21.454;2023-10-09T01:07:49;98873.41;;;19.15;52.79
62789;BME280;66401;42.016;21.454;2023-10-09T01:10:23;98827.78;;;18.80;53.03
62789;BME280;66401;42.016;21.454;2023-10-09T01:12:51;98856.00;;;19.03;52.62
62789;BME280;66401;42.016;21.454;2023-10-09T01:15:20;98878.59;;;19.10;52.62
62789;BME280;66401;42.016;21.454;2023-10-09T01:18:02;98863.22;;;19.07;53.05
62789;BME280;66401;42.016;21.454;2023-10-09T01:20:30;98847.28;;;19.02;53.43
62789;BME280;66401;42.016;21.454;2023-10-09T01:23:01;98861.13;;;19.09;53.68
62789;BME280;66401;42.016;21.454;2023-10-09T01:25:27;98863.91;;;19.14;53.38
62789;BME280;66401;42.016;21.454;2023-10-09T01:28:07;98865.63;;;19.09;53.41
62789;BME280;66401;42.016;21.454;2023-10-09T01:30:32;98878.59;;;19.10;53.86
62789;BME280;66401;42.016;21.454;2023-10-09T01:32:58;98871.38;;;19.06;53.90
62789;BME280;66401;42.016;21.454;2023-10-09T01:35:37;98850.28;;;18.94;53.99
62789;BME280;66401;42.016;21.454;2023-10-09T01:38:12;98878.59;;;19.10;54.43
62789;BME280;66401;42.016;21.454;2023-10-09T01:40:38;98878.59;;;19.10;54.10
62789;BME280;66401;42.016;21.454;2023-10-09T01:43:04;98879.75;;;19.14;53.66
62789;BME280;66401;42.016;21.454;2023-10-09T01:45:30;98885.34;;;19.18;54.08
62789;BME280;66401;42.016;21.454;2023-10-09T01:48:07;98893.03;;;19.20;53.63
62789;BME280;66401;42.016;21.454;2023-10-09T01:50:34;98884.78;;;19.16;53.75
62789;BME280;66401;42.016;21.454;2023-10-09T01:53:03;98886.16;;;19.19;53.55
62789;BME280;66401;42.016;21.454;2023-10-09T01:55:31;98883.06;;;19.10;54.52
62789;BME280;66401;42.016;21.454;2023-10-09T01:58:00;98886.63;;;19.15;54.05
62789;BME280;66401;42.016;21.454;2023-10-09T02:00:34;98866.31;;;19.04;54.31
62789;BME280;66401;42.016;21.454;2023-10-09T02:03:09;98892.81;;;19.09;54.82
62789;BME280;66401;42.016;21.454;2023-10-09T02:05:38;98881.13;;;19.05;54.01
62789;BME280;66401;42.016;21.454;2023-10-09T02:08:04;98894.56;;;19.04;54.66
62789;BME280;66401;42.016;21.454;2023-10-09T02:10:31;98890.09;;;19.04;54.82
62789;BME280;66401;42.016;21.454;2023-10-09T02:13:02;98887.31;;;18.99;55.17
62789;BME280;66401;42.016;21.454;2023-10-09T02:15:42;98892.72;;;19.04;54.45
62789;BME280;66401;42.016;21.454;2023-10-09T02:18:12;98896.16;;;19.05;54.83
62789;BME280;66401;42.016;21.454;2023-10-09T02:23:33;98902.72;;;19.02;55.19
62789;BME280;66401;42.016;21.454;2023-10-09T02:26:15;98901.56;;;18.98;56.29
62789;BME280;66401;42.016;21.454;2023-10-09T02:28:52;98898.34;;;18.96;55.50
62789;BME280;66401;42.016;21.454;2023-10-09T02:31:27;98896.97;;;19.05;55.24
62789;BME280;66401;42.016;21.454;2023-10-09T02:34:00;98884.69;;;18.99;55.39
62789;BME280;66401;42.016;21.454;2023-10-09T02:36:30;98898.00;;;19.04;54.77
62789;BME280;66401;42.016;21.454;2023-10-09T02:38:55;98907.63;;;19.10;55.31
62789;BME280;66401;42.016;21.454;2023-10-09T02:41:21;98916.59;;;19.09;55.55
62789;BME280;66401;42.016;21.454;2023-10-09T02:43:48;98900.97;;;19.08;55.64
62789;BME280;66401;42.016;21.454;2023-10-09T02:46:21;98922.00;;;19.14;55.09
62789;BME280;66401;42.016;21.454;2023-10-09T02:48:54;98920.38;;;19.13;55.27
62789;BME280;66401;42.016;21.454;2023-10-09T02:51:23;98925.66;;;19.13;55.64
62789;BME280;66401;42.016;21.454;2023-10-09T02:54:01;98910.88;;;19.12;55.51
62789;BME280;66401;42.016;21.454;2023-10-09T02:56:36;98918.78;;;19.12;55.49
62789;BME280;66401;42.016;21.454;2023-10-09T02:59:04;98912.81;;;19.05;55.42
62789;BME280;66401;42.016;21.454;2023-10-09T03:01:38;98912.81;;;19.05;55.43
62789;BME280;66401;42.016;21.454;2023-10-09T03:04:04;98922.09;;;19.08;55.62
62789;BME280;66401;42.016;21.454;2023-10-09T03:06:32;98913.28;;;19.02;55.61
62789;BME280;66401;42.016;21.454;2023-10-09T03:08:59;98912.34;;;19.08;55.25
62789;BME280;66401;42.016;21.454;2023-10-09T03:11:25;98919.00;;;18.99;55.47
62789;BME280;66401;42.016;21.454;2023-10-09T03:13:52;98915.78;;;18.97;56.08
62789;BME280;66401;42.016;21.454;2023-10-09T03:16:18;98923.03;;;19.02;55.89
62789;BME280;66401;42.016;21.454;2023-10-09T03:18:52;98927.50;;;19.01;56.34
62789;BME280;66401;42.016;21.454;2023-10-09T03:21:21;98919.94;;;18.93;55.55
62789;BME280;66401;42.016;21.454;2023-10-09T03:23:47;98922.69;;;18.98;56.84
62789;BME280;66401;42.016;21.454;2023-10-09T03:26:18;98892.63;;;18.76;56.09
62789;BME280;66401;42.016;21.454;2023-10-09T03:28:48;98928.88;;;18.92;56.12
62789;BME280;66401;42.016;21.454;2023-10-09T03:31:13;98933.56;;;18.90;56.59
62789;BME280;66401;42.016;21.454;2023-10-09T03:33:40;98939.31;;;18.87;56.33
62789;BME280;66401;42.016;21.454;2023-10-09T03:36:06;98938.03;;;18.78;56.85
62789;BME280;66401;42.016;21.454;2023-10-09T03:38:40;98932.31;;;18.81;57.22
62789;BME280;66401;42.016;21.454;2023-10-09T03:41:06;98938.84;;;18.78;56.27
62789;BME280;66401;42.016;21.454;2023-10-09T03:43:36;98938.03;;;18.78;56.78
62789;BME280;66401;42.016;21.454;2023-10-09T03:46:08;98935.75;;;18.70;56.76
62789;BME280;66401;42.016;21.454;2023-10-09T03:48:50;98934.38;;;18.67;57.07
62789;BME280;66401;42.016;21.454;2023-10-09T03:51:21;98938.28;;;18.65;57.22
62789;BME280;66401;42.016;21.454;2023-10-09T03:53:48;98947.38;;;18.50;58.81
62789;BME280;66401;42.016;21.454;2023-10-09T03:56:14;98942.66;;;18.52;57.19
62789;BME280;66401;42.016;21.454;2023-10-09T03:58:51;98951.41;;;18.53;57.63
62789;BME280;66401;42.016;21.454;2023-10-09T04:01:21;98947.94;;;18.41;58.38
62789;BME280;66401;42.016;21.454;2023-10-09T04:03:57;98947.59;;;18.37;58.47
62789;BME280;66401;42.016;21.454;2023-10-09T04:06:30;98948.59;;;18.24;58.54
62789;BME280;66401;42.016;21.454;2023-10-09T04:09:06;98960.78;;;18.37;58.17
62789;BME280;66401;42.016;21.454;2023-10-09T04:11:45;98953.94;;;18.18;58.80
62789;BME280;66401;42.016;21.454;2023-10-09T04:14:14;98949.59;;;18.23;59.17
62789;BME280;66401;42.016;21.454;2023-10-09T04:16:59;98953.38;;;18.16;59.28
62789;BME280;66401;42.016;21.454;2023-10-09T04:19:43;98943.22;;;18.01;59.30
62789;BME280;66401;42.016;21.454;2023-10-09T04:22:34;98959.00;;;17.71;60.73
62789;BME280;66401;42.016;21.454;2023-10-09T04:25:05;98964.09;;;17.84;60.48
62789;BME280;66401;42.016;21.454;2023-10-09T04:27:40;98956.34;;;17.89;60.11
62789;BME280;66401;42.016;21.454;2023-10-09T04:30:06;98941.78;;;17.87;59.70
62789;BME280;66401;42.016;21.454;2023-10-09T04:32:33;98951.06;;;17.89;60.04
62789;BME280;66401;42.016;21.454;2023-10-09T04:35:00;98946.31;;;17.80;59.63
62789;BME280;66401;42.016;21.454;2023-10-09T04:37:45;98960.75;;;17.77;60.67
62789;BME280;66401;42.016;21.454;2023-10-09T04:40:20;98967.75;;;17.83;59.83
62789;BME280;66401;42.016;21.454;2023-10-09T04:43:04;98963.38;;;17.77;60.83
62789;BME280;66401;42.016;21.454;2023-10-09T04:45:38;98968.22;;;17.80;59.82
62789;BME280;66401;42.016;21.454;2023-10-09T04:48:22;98955.75;;;17.87;59.95
62789;BME280;66401;42.016;21.454;2023-10-09T04:51:04;98970.69;;;17.75;61.16
62789;BME280;66401;42.016;21.454;2023-10-09T04:53:48;98967.47;;;17.73;61.34
62789;BME280;66401;42.016;21.454;2023-10-09T04:56:32;98966.44;;;17.74;60.74
62789;BME280;66401;42.016;21.454;2023-10-09T04:58:58;98980.41;;;17.74;59.93
62789;BME280;66401;42.016;21.454;2023-10-09T05:01:30;98984.16;;;17.67;60.62
62789;BME280;66401;42.016;21.454;2023-10-09T05:04:02;98997.72;;;17.45;60.61
62789;BME280;66401;42.016;21.454;2023-10-09T05:06:29;98985.81;;;17.00;63.31
62789;BME280;66401;42.016;21.454;2023-10-09T05:09:08;98992.72;;;17.19;62.01
62789;BME280;66401;42.016;21.454;2023-10-09T05:11:34;98982.50;;;17.29;61.26
62789;BME280;66401;42.016;21.454;2023-10-09T05:14:21;98991.28;;;17.41;60.87
62789;BME280;66401;42.016;21.454;2023-10-09T05:17:07;98993.28;;;17.03;61.40
62789;BME280;66401;42.016;21.454;2023-10-09T05:19:32;99000.72;;;17.06;62.44
62789;BME280;66401;42.016;21.454;2023-10-09T05:22:10;98998.56;;;16.96;61.41
62789;BME280;66401;42.016;21.454;2023-10-09T05:24:59;99002.78;;;17.04;61.51
62789;BME280;66401;42.016;21.454;2023-10-09T05:27:24;99008.78;;;17.11;61.07
62789;BME280;66401;42.016;21.454;2023-10-09T05:30:08;99012.00;;;17.13;60.95
62789;BME280;66401;42.016;21.454;2023-10-09T05:32:58;99011.75;;;17.21;60.18
62789;BME280;66401;42.016;21.454;2023-10-09T05:35:25;98998.66;;;16.90;61.59
62789;BME280;66401;42.016;21.454;2023-10-09T05:38:08;99016.59;;;17.17;60.31
62789;BME280;66401;42.016;21.454;2023-10-09T05:40:49;99013.63;;;17.14;60.34
62789;BME280;66401;42.016;21.454;2023-10-09T05:43:20;99034.22;;;17.17;61.69
62789;BME280;66401;42.016;21.454;2023-10-09T05:46:04;99034.19;;;16.99;59.65
62789;BME280;66401;42.016;21.454;2023-10-09T05:48:40;99044.81;;;16.85;60.61
62789;BME280;66401;42.016;21.454;2023-10-09T05:51:05;99033.41;;;16.60;61.35
62789;BME280;66401;42.016;21.454;2023-10-09T05:53:34;99028.44;;;16.45;61.13
62789;BME280;66401;42.016;21.454;2023-10-09T05:56:09;99044.19;;;16.52;61.98
62789;BME280;66401;42.016;21.454;2023-10-09T05:58:53;99024.59;;;16.03;62.57
62789;BME280;66401;42.016;21.454;2023-10-09T06:01:37;99064.50;;;16.31;62.93
62789;BME280;66401;42.016;21.454;2023-10-09T06:04:21;99070.97;;;16.36;61.53
62789;BME280;66401;42.016;21.454;2023-10-09T06:07:00;99065.34;;;16.19;62.11
62789;BME280;66401;42.016;21.454;2023-10-09T06:09:36;99072.59;;;16.30;62.40
62789;BME280;66401;42.016;21.454;2023-10-09T06:12:21;99073.88;;;16.08;62.31
62789;BME280;66401;42.016;21.454;2023-10-09T06:14:49;99079.09;;;16.21;61.51
62789;BME280;66401;42.016;21.454;2023-10-09T06:17:15;99091.19;;;16.28;61.77
62789;BME280;66401;42.016;21.454;2023-10-09T06:19:52;99085.38;;;16.20;61.03
62789;BME280;66401;42.016;21.454;2023-10-09T06:22:24;99077.47;;;16.20;62.16
62789;BME280;66401;42.016;21.454;2023-10-09T06:24:50;99081.56;;;16.09;60.62
62789;BME280;66401;42.016;21.454;2023-10-09T06:27:18;99079.72;;;16.16;60.91
62789;BME280;66401;42.016;21.454;2023-10-09T06:29:59;99082.34;;;16.16;61.20
62789;BME280;66401;42.016;21.454;2023-10-09T06:32:49;99101.34;;;16.25;60.20
62789;BME280;66401;42.016;21.454;2023-10-09T06:35:16;99108.59;;;16.29;60.39
62789;BME280;66401;42.016;21.454;2023-10-09T06:37:50;99111.97;;;16.43;60.53
62789;BME280;66401;42.016;21.454;2023-10-09T06:40:37;99113.31;;;16.59;59.67
62789;BME280;66401;42.016;21.454;2023-10-09T06:43:21;99106.94;;;16.42;60.20
62789;BME280;66401;42.016;21.454;2023-10-09T06:45:46;99113.25;;;16.27;60.47
62789;BME280;66401;42.016;21.454;2023-10-09T06:48:21;99110.63;;;16.27;59.83
62789;BME280;66401;42.016;21.454;2023-10-09T06:51:09;99101.13;;;16.26;59.43
62789;BME280;66401;42.016;21.454;2023-10-09T06:54:01;99095.81;;;16.40;59.46
62789;BME280;66401;42.016;21.454;2023-10-09T06:56:34;99107.28;;;16.52;59.40
62789;BME280;66401;42.016;21.454;2023-10-09T06:59:05;99115.41;;;16.44;58.89
62789;BME280;66401;42.016;21.454;2023-10-09T07:01:53;99115.44;;;16.37;59.03
62789;BME280;66401;42.016;21.454;2023-10-09T07:04:37;99102.94;;;16.33;59.61
62789;BME280;66401;42.016;21.454;2023-10-09T07:07:03;99116.66;;;16.35;59.77
62789;BME280;66401;42.016;21.454;2023-10-09T07:09:46;99110.81;;;16.33;58.81
62789;BME280;66401;42.016;21.454;2023-10-09T07:12:34;99121.47;;;16.51;58.64
62789;BME280;66401;42.016;21.454;2023-10-09T07:15:00;99111.56;;;16.46;58.00
62789;BME280;66401;42.016;21.454;2023-10-09T07:17:26;99116.56;;;16.61;58.08
62789;BME280;66401;42.016;21.454;2023-10-09T07:20:10;99123.03;;;16.58;57.67
62789;BME280;66401;42.016;21.454;2023-10-09T07:22:40;99135.88;;;16.86;56.87
62789;BME280;66401;42.016;21.454;2023-10-09T07:25:19;99125.53;;;16.92;56.50
62789;BME280;66401;42.016;21.454;2023-10-09T07:28:04;99137.38;;;17.07;56.38
62789;BME280;66401;42.016;21.454;2023-10-09T07:30:46;99133.59;;;17.28;55.46
62789;BME280;66401;42.016;21.454;2023-10-09T07:33:12;99141.22;;;17.36;55.52
62789;BME280;66401;42.016;21.454;2023-10-09T07:35:41;99119.47;;;17.72;55.00
62789;BME280;66401;42.016;21.454;2023-10-09T07:38:12;99133.06;;;18.31;52.87
62789;BME280;66401;42.016;21.454;2023-10-09T07:40:40;99133.53;;;18.65;52.61
62789;BME280;66401;42.016;21.454;2023-10-09T07:43:29;99126.19;;;18.67;52.95
62789;BME280;66401;42.016;21.454;2023-10-09T07:46:07;99131.94;;;19.05;52.11
62789;BME280;66401;42.016;21.454;2023-10-09T07:48:51;99121.66;;;19.27;51.88
62789;BME280;66401;42.016;21.454;2023-10-09T07:51:23;99122.94;;;19.25;50.70
62789;BME280;66401;42.016;21.454;2023-10-09T07:53:52;99129.09;;;19.60;51.37
62789;BME280;66401;42.016;21.454;2023-10-09T07:56:37;99114.13;;;18.52;51.41
62789;BME280;66401;42.016;21.454;2023-10-09T07:59:12;99115.91;;;18.77;51.49
62789;BME280;66401;42.016;21.454;2023-10-09T08:01:43;99106.25;;;19.12;50.45
62789;BME280;66401;42.016;21.454;2023-10-09T08:04:25;99111.09;;;19.39;49.98
62789;BME280;66401;42.016;21.454;2023-10-09T08:07:05;99107.16;;;19.71;48.75
62789;BME280;66401;42.016;21.454;2023-10-09T08:09:35;99107.03;;;19.66;49.15
62789;BME280;66401;42.016;21.454;2023-10-09T08:12:11;99111.03;;;19.57;49.00
62789;BME280;66401;42.016;21.454;2023-10-09T08:14:56;99105.38;;;20.12;49.18
62789;BME280;66401;42.016;21.454;2023-10-09T08:17:43;99114.34;;;20.11;47.90
62789;BME280;66401;42.016;21.454;2023-10-09T08:20:13;99097.84;;;20.33;47.89
62789;BME280;66401;42.016;21.454;2023-10-09T08:22:42;99082.50;;;20.06;47.68
62789;BME280;66401;42.016;21.454;2023-10-09T08:25:18;99087.84;;;20.46;47.49
62789;BME280;66401;42.016;21.454;2023-10-09T08:27:58;99098.34;;;20.70;46.03
62789;BME280;66401;42.016;21.454;2023-10-09T08:30:27;99072.03;;;20.80;45.57
62789;BME280;66401;42.016;21.454;2023-10-09T08:32:52;99102.78;;;21.26;43.84
62789;BME280;66401;42.016;21.454;2023-10-09T08:35:50;99098.38;;;21.87;43.87
62789;BME280;66401;42.016;21.454;2023-10-09T08:38:17;99103.09;;;22.02;43.48
62789;BME280;66401;42.016;21.454;2023-10-09T08:40:50;99090.63;;;22.46;42.01
62789;BME280;66401;42.016;21.454;2023-10-09T08:43:20;99068.69;;;22.29;42.17
62789;BME280;66401;42.016;21.454;2023-10-09T08:45:53;99088.88;;;22.79;41.69
62789;BME280;66401;42.016;21.454;2023-10-09T08:48:20;99094.09;;;22.69;40.68
62789;BME280;66401;42.016;21.454;2023-10-09T08:50:52;99096.44;;;23.24;39.07
62789;BME280;66401;42.016;21.454;2023-10-09T08:53:21;99078.03;;;23.92;39.00
62789;BME280;66401;42.016;21.454;2023-10-09T08:55:49;99065.41;;;24.30;37.28
62789;BME280;66401;42.016;21.454;2023-10-09T08:58:15;99058.06;;;25.64;35.93
62789;BME280;66401;42.016;21.454;2023-10-09T09:00:46;99071.63;;;26.58;34.96
62789;BME280;66401;42.016;21.454;2023-10-09T09:03:16;99070.69;;;28.17;32.00
62789;BME280;66401;42.016;21.454;2023-10-09T09:05:46;99072.34;;;29.86;29.58
62789;BME280;66401;42.016;21.454;2023-10-09T09:08:25;99069.72;;;31.09;26.58
62789;BME280;66401;42.016;21.454;2023-10-09T09:11:10;99059.91;;;30.18;27.52
62789;BME280;66401;42.016;21.454;2023-10-09T09:16:24;99055.44;;;30.86;27.05
62789;BME280;66401;42.016;21.454;2023-10-09T09:21:29;99054.75;;;29.20;28.72
62789;BME280;66401;42.016;21.454;2023-10-09T09:24:00;99044.50;;;30.10;27.36
62789;BME280;66401;42.016;21.454;2023-10-09T09:26:37;99038.03;;;29.70;26.78
62789;BME280;66401;42.016;21.454;2023-10-09T09:29:06;99036.00;;;31.11;26.60
62789;BME280;66401;42.016;21.454;2023-10-09T09:31:35;99035.66;;;32.49;23.95
62789;BME280;66401;42.016;21.454;2023-10-09T09:34:04;99006.47;;;32.86;23.30
62789;BME280;66401;42.016;21.454;2023-10-09T09:36:49;99034.94;;;33.68;22.69
62789;BME280;66401;42.016;21.454;2023-10-09T09:39:23;99012.28;;;31.44;25.01
62789;BME280;66401;42.016;21.454;2023-10-09T09:42:00;99014.28;;;33.25;23.42
62789;BME280;66401;42.016;21.454;2023-10-09T09:44:39;99004.75;;;33.37;23.85
62789;BME280;66401;42.016;21.454;2023-10-09T09:47:15;99002.19;;;33.78;23.03
62789;BME280;66401;42.016;21.454;2023-10-09T09:49:50;98977.81;;;31.63;24.50
62789;BME280;66401;42.016;21.454;2023-10-09T09:52:16;99004.13;;;31.04;25.23
62789;BME280;66401;42.016;21.454;2023-10-09T09:54:43;98989.16;;;31.43;25.11
62789;BME280;66401;42.016;21.454;2023-10-09T09:57:13;98984.41;;;32.92;24.01
62789;BME280;66401;42.016;21.454;2023-10-09T09:59:41;98995.94;;;34.70;21.16
62789;BME280;66401;42.016;21.454;2023-10-09T10:02:20;99004.34;;;36.36;19.69
62789;BME280;66401;42.016;21.454;2023-10-09T10:04:52;98994.16;;;33.61;22.32
62789;BME280;66401;42.016;21.454;2023-10-09T10:07:22;98987.09;;;34.61;20.36
62789;BME280;66401;42.016;21.454;2023-10-09T10:09:49;98984.84;;;34.63;20.09
62789;BME280;66401;42.016;21.454;2023-10-09T10:15:57;98971.19;;;34.92;20.57
62789;BME280;66401;42.016;21.454;2023-10-09T10:18:24;98942.16;;;34.81;19.60
62789;BME280;66401;42.016;21.454;2023-10-09T10:23:42;98957.78;;;34.63;21.10
62789;BME280;66401;42.016;21.454;2023-10-09T10:26:17;98953.91;;;34.39;20.57
62789;BME280;66401;42.016;21.454;2023-10-09T10:28:43;98940.03;;;32.12;23.42
62789;BME280;66401;42.016;21.454;2023-10-09T10:31:11;98941.03;;;34.36;20.76
62789;BME280;66401;42.016;21.454;2023-10-09T10:36:23;98928.28;;;32.42;22.95
62789;BME280;66401;42.016;21.454;2023-10-09T10:39:05;98925.97;;;32.96;22.37
62789;BME280;66401;42.016;21.454;2023-10-09T10:41:35;98923.31;;;32.70;22.01
62789;BME280;66401;42.016;21.454;2023-10-09T10:44:45;98889.63;;;29.14;25.74
62789;BME280;66401;42.016;21.454;2023-10-09T10:47:12;98915.59;;;27.83;28.06
62789;BME280;66401;42.016;21.454;2023-10-09T10:50:02;98900.63;;;26.58;29.71
62789;BME280;66401;42.016;21.454;2023-10-09T10:53:12;98894.69;;;28.04;28.36
62789;BME280;66401;42.016;21.454;2023-10-09T10:56:02;98891.84;;;27.95;28.60
62789;BME280;66401;42.016;21.454;2023-10-09T10:58:41;98897.69;;;28.16;28.26
62789;BME280;66401;42.016;21.454;2023-10-09T11:01:19;98874.47;;;27.13;28.85
62789;BME280;66401;42.016;21.454;2023-10-09T11:03:48;98888.09;;;27.35;27.22
62789;BME280;66401;42.016;21.454;2023-10-09T11:06:30;98880.94;;;27.06;28.65
62789;BME280;66401;42.016;21.454;2023-10-09T11:09:04;98888.09;;;27.35;29.56
62789;BME280;66401;42.016;21.454;2023-10-09T11:11:50;98865.59;;;27.36;29.66
62789;BME280;66401;42.016;21.454;2023-10-09T11:14:20;98888.03;;;27.59;27.83
62789;BME280;66401;42.016;21.454;2023-10-09T11:16:52;98885.03;;;26.70;29.89
62789;BME280;66401;42.016;21.454;2023-10-09T11:19:23;98866.25;;;25.67;30.22
62789;BME280;66401;42.016;21.454;2023-10-09T11:21:58;98865.16;;;26.52;29.50
62789;BME280;66401;42.016;21.454;2023-10-09T11:24:47;98862.00;;;25.72;30.44
62789;BME280;66401;42.016;21.454;2023-10-09T11:27:26;98841.44;;;25.72;30.18
62789;BME280;66401;42.016;21.454;2023-10-09T11:29:57;98847.66;;;26.36;30.50
62789;BME280;66401;42.016;21.454;2023-10-09T11:32:30;98849.38;;;26.56;28.78
62789;BME280;66401;42.016;21.454;2023-10-09T11:35:14;98840.84;;;27.06;28.76
62789;BME280;66401;42.016;21.454;2023-10-09T11:37:57;98835.88;;;26.95;27.55
62789;BME280;66401;42.016;21.454;2023-10-09T11:40:30;98844.38;;;26.73;28.32
62789;BME280;66401;42.016;21.454;2023-10-09T11:43:28;98830.50;;;27.19;28.05
62789;BME280;66401;42.016;21.454;2023-10-09T11:46:13;98823.75;;;27.45;27.96
62789;BME280;66401;42.016;21.454;2023-10-09T11:49:08;98822.97;;;27.63;27.69
62789;BME280;66401;42.016;21.454;2023-10-09T11:51:46;98810.75;;;27.57;27.66
62789;BME280;66401;42.016;21.454;2023-10-09T11:54:31;98815.94;;;27.30;27.72
62789;BME280;66401;42.016;21.454;2023-10-09T11:57:00;98801.41;;;26.69;27.77
62789;BME280;66401;42.016;21.454;2023-10-09T11:59:31;98804.31;;;26.44;28.00
62789;BME280;66401;42.016;21.454;2023-10-09T12:02:07;98795.34;;;26.82;27.92
62789;BME280;66401;42.016;21.454;2023-10-09T12:04:39;98786.72;;;27.15;28.11
62789;BME280;66401;42.016;21.454;2023-10-09T12:07:08;98789.13;;;27.35;27.17
62789;BME280;66401;42.016;21.454;2023-10-09T12:09:38;98792.50;;;27.59;27.25
62789;BME280;66401;42.016;21.454;2023-10-09T12:12:06;98789.66;;;26.41;27.57
62789;BME280;66401;42.016;21.454;2023-10-09T12:14:35;98780.25;;;26.15;29.26
62789;BME280;66401;42.016;21.454;2023-10-09T12:17:04;98777.13;;;26.08;28.53
62789;BME280;66401;42.016;21.454;2023-10-09T12:19:33;98779.84;;;26.32;28.65
62789;BME280;66401;42.016;21.454;2023-10-09T12:22:01;98768.69;;;26.53;28.59
62789;BME280;66401;42.016;21.454;2023-10-09T12:24:29;98766.97;;;26.10;28.92
62789;BME280;66401;42.016;21.454;2023-10-09T12:26:55;98768.28;;;26.12;30.45
62789;BME280;66401;42.016;21.454;2023-10-09T12:29:22;98768.06;;;25.69;30.33
62789;BME280;66401;42.016;21.454;2023-10-09T12:31:49;98766.47;;;25.24;31.22
62789;BME280;66401;42.016;21.454;2023-10-09T12:34:23;98767.81;;;25.71;30.42
62789;BME280;66401;42.016;21.454;2023-10-09T12:36:53;98766.09;;;25.85;30.09
62789;BME280;66401;42.016;21.454;2023-10-09T12:39:20;98754.22;;;25.67;30.49
62789;BME280;66401;42.016;21.454;2023-10-09T12:41:47;98742.47;;;25.24;30.86
62789;BME280;66401;42.016;21.454;2023-10-09T12:44:13;98733.97;;;25.17;31.00
62789;BME280;66401;42.016;21.454;2023-10-09T12:46:48;98742.25;;;25.16;30.93
62789;BME280;66401;42.016;21.454;2023-10-09T12:49:20;98737.09;;;25.74;30.93
62789;BME280;66401;42.016;21.454;2023-10-09T12:51:55;98740.59;;;26.03;29.55
62789;BME280;66401;42.016;21.454;2023-10-09T12:54:22;98736.81;;;26.38;29.64
62789;BME280;66401;42.016;21.454;2023-10-09T12:56:53;98728.63;;;26.53;29.24
62789;BME280;66401;42.016;21.454;2023-10-09T12:59:18;98731.16;;;26.45;29.22
62789;BME280;66401;42.016;21.454;2023-10-09T13:01:46;98720.50;;;26.11;29.05
62789;BME280;66401;42.016;21.454;2023-10-09T13:04:17;98719.88;;;26.48;29.17
62789;BME280;66401;42.016;21.454;2023-10-09T13:06:44;98711.16;;;26.85;28.18
62789;BME280;66401;42.016;21.454;2023-10-09T13:09:11;98721.09;;;27.03;28.19
62789;BME280;66401;42.016;21.454;2023-10-09T13:11:36;98719.38;;;27.13;28.23
62789;BME280;66401;42.016;21.454;2023-10-09T13:14:02;98704.03;;;26.57;28.88
62789;BME280;66401;42.016;21.454;2023-10-09T13:16:37;98721.34;;;26.83;29.53
62789;BME280;66401;42.016;21.454;2023-10-09T13:19:02;98707.38;;;26.67;28.34
62789;BME280;66401;42.016;21.454;2023-10-09T13:21:35;98701.72;;;26.69;29.13
62789;BME280;66401;42.016;21.454;2023-10-09T13:24:10;98703.84;;;26.48;29.27
62789;BME280;66401;42.016;21.454;2023-10-09T13:26:42;98708.81;;;26.07;29.22
62789;BME280;66401;42.016;21.454;2023-10-09T13:29:10;98710.47;;;25.29;30.04
62789;BME280;66401;42.016;21.454;2023-10-09T13:31:37;98701.41;;;25.30;31.29
62789;BME280;66401;42.016;21.454;2023-10-09T13:34:06;98701.75;;;25.14;31.09
62789;BME280;66401;42.016;21.454;2023-10-09T13:36:35;98693.50;;;25.15;30.94
62789;BME280;66401;42.016;21.454;2023-10-09T13:39:05;98687.34;;;25.20;31.19
62789;BME280;66401;42.016;21.454;2023-10-09T13:41:59;98688.22;;;25.05;31.30
62789;BME280;66401;42.016;21.454;2023-10-09T13:44:30;98700.50;;;24.96;31.92